createdAt,value
2022-11-03T00:02:03.517Z,7.20
2022-11-03T00:04:30.385Z,8.93
2022-11-03T00:06:57.466Z,7.88
2022-11-03T00:09:27.172Z,9.35
2022-11-03T00:11:54.298Z,7.78
2022-11-03T00:14:21.079Z,8.18
2022-11-03T00:16:48.140Z,9.82
2022-11-03T00:19:17.091Z,8.98
2022-11-03T00:21:45.269Z,8.85
2022-11-03T00:24:12.867Z,8.73
2022-11-03T00:26:40.125Z,9.68
2022-11-03T00:29:10.795Z,11.05
2022-11-03T00:31:40.116Z,8.50
2022-11-03T00:34:07.789Z,8.02
2022-11-03T00:36:41.741Z,9.00
2022-11-03T00:39:09.327Z,8.85
2022-11-03T00:41:36.881Z,8.52
2022-11-03T00:44:03.932Z,8.55
2022-11-03T00:46:30.752Z,8.73
2022-11-03T00:48:57.635Z,8.30
2022-11-03T00:51:27.797Z,9.38
2022-11-03T00:54:00.527Z,8.70
2022-11-03T00:56:32.819Z,8.13
2022-11-03T00:59:01.828Z,8.88
2022-11-03T01:01:45.400Z,8.30
2022-11-03T01:04:32.539Z,8.50
2022-11-03T01:07:01.118Z,8.52
2022-11-03T01:09:40.406Z,8.65
2022-11-03T01:12:19.136Z,9.00
2022-11-03T01:14:49.756Z,10.05
2022-11-03T01:17:26.480Z,7.75
2022-11-03T01:19:54.352Z,9.18
2022-11-03T01:22:23.030Z,9.90
2022-11-03T01:24:51.751Z,9.90
2022-11-03T01:27:21.141Z,8.00
2022-11-03T01:29:49.083Z,8.27
2022-11-03T01:32:15.944Z,7.70
2022-11-03T01:34:42.721Z,8.75
2022-11-03T01:37:09.493Z,8.10
2022-11-03T01:39:36.319Z,7.22
2022-11-03T01:42:03.211Z,8.80
2022-11-03T01:44:37.548Z,8.40
2022-11-03T01:47:26.377Z,7.80
2022-11-03T01:50:02.285Z,7.80
2022-11-03T01:52:43.019Z,6.88
2022-11-03T01:55:21.810Z,8.73
2022-11-03T01:57:56.968Z,7.85
2022-11-03T02:00:23.777Z,6.65
2022-11-03T02:02:51.567Z,7.32
2022-11-03T02:05:19.810Z,7.22
2022-11-03T02:07:58.522Z,6.82
2022-11-03T02:10:25.649Z,7.68
2022-11-03T02:12:52.760Z,6.80
2022-11-03T02:15:21.708Z,6.63
2022-11-03T02:17:52.309Z,6.05
2022-11-03T02:20:27.507Z,6.18
2022-11-03T02:23:39.814Z,6.55
2022-11-03T02:26:08.323Z,6.43
2022-11-03T02:28:35.128Z,5.95
2022-11-03T02:31:25.961Z,5.78
2022-11-03T02:34:23.334Z,5.25
2022-11-03T02:37:00.905Z,5.20
2022-11-03T02:39:38.657Z,4.95
2022-11-03T02:42:07.388Z,4.55
2022-11-03T02:44:35.277Z,4.78
2022-11-03T02:47:08.325Z,4.32
2022-11-03T02:52:44.756Z,4.43
2022-11-03T02:55:23.046Z,5.13
2022-11-03T02:58:17.786Z,4.93
2022-11-03T03:01:25.614Z,5.57
2022-11-03T03:04:01.197Z,5.20
2022-11-03T03:06:40.076Z,4.65
2022-11-03T03:09:22.996Z,4.70
2022-11-03T03:11:53.325Z,5.20
2022-11-03T03:14:41.875Z,4.80
2022-11-03T03:17:34.100Z,5.38
2022-11-03T03:20:29.054Z,5.07
2022-11-03T03:23:05.137Z,4.32
2022-11-03T03:25:42.175Z,3.97
2022-11-03T03:28:18.267Z,4.22
2022-11-03T03:30:46.931Z,3.88
2022-11-03T03:33:15.229Z,4.07
2022-11-03T03:35:45.721Z,3.78
2022-11-03T03:38:27.517Z,3.67
2022-11-03T03:40:57.640Z,3.70
2022-11-03T03:43:27.069Z,3.75
2022-11-03T03:45:56.935Z,3.25
2022-11-03T03:48:23.884Z,3.65
2022-11-03T03:50:51.447Z,3.33
2022-11-03T03:53:19.432Z,3.42
2022-11-03T03:55:51.213Z,3.38
2022-11-03T03:58:18.143Z,3.42
2022-11-03T04:00:45.329Z,3.03
2022-11-03T04:03:22.222Z,3.30
2022-11-03T04:05:50.144Z,3.70
2022-11-03T04:08:17.964Z,3.80
2022-11-03T04:11:04.081Z,4.40
2022-11-03T04:13:50.285Z,3.95
2022-11-03T04:16:36.249Z,4.10
2022-11-03T04:19:21.410Z,3.95
2022-11-03T04:22:06.716Z,3.95
2022-11-03T04:24:33.508Z,4.10
2022-11-03T04:27:37.099Z,4.40
2022-11-03T04:30:09.882Z,4.20
2022-11-03T04:32:37.758Z,4.22
2022-11-03T04:35:24.804Z,5.32
2022-11-03T04:37:59.224Z,4.80
2022-11-03T04:40:26.221Z,4.78
2022-11-03T04:42:53.618Z,4.32
2022-11-03T04:45:32.311Z,3.85
2022-11-03T04:48:01.897Z,4.35
2022-11-03T04:50:28.846Z,4.00
2022-11-03T04:52:58.344Z,4.20
2022-11-03T04:55:26.552Z,4.65
2022-11-03T04:57:58.716Z,4.13
2022-11-03T05:00:25.488Z,3.20
2022-11-03T05:02:55.983Z,4.68
2022-11-03T05:05:26.413Z,4.82
2022-11-03T05:07:56.880Z,5.13
2022-11-03T05:10:29.421Z,5.53
2022-11-03T05:12:57.331Z,6.03
2022-11-03T05:15:36.842Z,5.30
2022-11-03T05:18:31.641Z,5.57
2022-11-03T05:21:03.689Z,4.88
2022-11-03T05:23:44.404Z,3.47
2022-11-03T05:26:29.973Z,4.55
2022-11-03T05:29:30.628Z,4.10
2022-11-03T05:31:57.557Z,4.68
2022-11-03T05:34:46.857Z,4.88
2022-11-03T05:37:31.470Z,5.22
2022-11-03T05:40:21.536Z,5.00
2022-11-03T05:42:56.958Z,5.38
2022-11-03T05:45:46.687Z,5.45
2022-11-03T05:48:32.021Z,5.60
2022-11-03T05:51:00.455Z,5.15
2022-11-03T05:53:32.552Z,5.10
2022-11-03T05:56:04.419Z,5.90
2022-11-03T05:58:40.165Z,5.65
2022-11-03T06:01:26.299Z,5.55
2022-11-03T06:03:53.314Z,6.10
2022-11-03T06:06:34.267Z,5.72
2022-11-03T06:09:16.791Z,5.97
2022-11-03T06:11:44.392Z,4.43
2022-11-03T06:14:15.152Z,5.75
2022-11-03T06:17:23.255Z,4.57
2022-11-03T06:19:57.653Z,6.22
2022-11-03T06:22:38.119Z,6.38
2022-11-03T06:25:37.287Z,6.63
2022-11-03T06:28:06.637Z,6.65
2022-11-03T06:30:36.445Z,5.55
2022-11-03T06:33:27.514Z,5.40
2022-11-03T06:36:20.358Z,5.95
2022-11-03T06:38:57.536Z,5.97
2022-11-03T06:41:29.757Z,6.28
2022-11-03T06:43:58.340Z,4.63
2022-11-03T06:46:26.613Z,6.00
2022-11-03T06:49:00.730Z,6.18
2022-11-03T06:51:29.694Z,6.05
2022-11-03T06:54:00.192Z,6.32
2022-11-03T06:56:31.870Z,5.68
2022-11-03T06:58:58.624Z,5.63
2022-11-03T07:01:32.522Z,6.25
2022-11-03T07:04:13.308Z,5.55
2022-11-03T07:06:40.641Z,5.47
2022-11-03T07:09:17.752Z,4.88
2022-11-03T07:11:50.103Z,6.05
2022-11-03T07:14:21.737Z,5.55
2022-11-03T07:16:57.851Z,5.25
2022-11-03T07:19:42.477Z,5.97
2022-11-03T07:22:26.247Z,5.57
2022-11-03T07:25:03.868Z,6.45
2022-11-03T07:27:39.007Z,5.35
2022-11-03T07:30:22.851Z,5.07
2022-11-03T07:32:53.650Z,5.22
2022-11-03T07:35:53.178Z,5.10
2022-11-03T07:38:22.426Z,5.03
2022-11-03T07:40:51.932Z,5.40
2022-11-03T07:43:35.918Z,4.60
2022-11-03T07:46:04.912Z,4.53
2022-11-03T07:48:47.713Z,5.78
2022-11-03T07:51:27.454Z,4.97
2022-11-03T07:54:15.570Z,4.70
2022-11-03T07:56:45.332Z,4.30
2022-11-03T07:59:19.361Z,4.28
2022-11-03T08:01:51.341Z,4.03
2022-11-03T08:04:23.613Z,2.88
2022-11-03T08:06:51.381Z,4.50
2022-11-03T08:09:19.434Z,4.20
2022-11-03T08:11:46.755Z,3.65
2022-11-03T08:14:13.875Z,3.88
2022-11-03T08:16:41.106Z,3.80
2022-11-03T08:19:08.370Z,3.92
2022-11-03T08:21:35.473Z,4.45
2022-11-03T08:24:02.387Z,4.60
2022-11-03T08:26:29.418Z,5.22
2022-11-03T08:28:56.237Z,5.25
2022-11-03T08:31:23.073Z,5.07
2022-11-03T08:33:49.879Z,5.53
2022-11-03T08:36:17.108Z,5.50
2022-11-03T08:38:43.948Z,5.30
2022-11-03T08:41:10.877Z,5.43
2022-11-03T08:43:37.736Z,5.00
2022-11-03T08:46:15.415Z,5.32
2022-11-03T08:48:44.692Z,5.18
2022-11-03T08:51:13.623Z,5.20
2022-11-03T08:53:42.671Z,5.28
2022-11-03T08:56:12.822Z,5.65
2022-11-03T08:58:45.181Z,5.85
2022-11-03T09:01:18.434Z,5.90
2022-11-03T09:03:45.396Z,5.65
2022-11-03T09:06:12.296Z,6.13
2022-11-03T09:11:25.814Z,5.97
2022-11-03T09:13:52.603Z,5.90
2022-11-03T09:16:19.384Z,5.68
2022-11-03T09:18:46.248Z,6.03
2022-11-03T09:21:14.702Z,5.50
2022-11-03T09:23:41.524Z,5.75
2022-11-03T09:26:08.275Z,6.57
2022-11-03T09:28:35.068Z,5.32
2022-11-03T09:31:01.929Z,5.00
2022-11-03T09:33:28.746Z,5.47
2022-11-03T09:35:55.579Z,5.10
2022-11-03T09:38:22.371Z,5.32
2022-11-03T09:43:16.024Z,4.80
2022-11-03T09:45:42.792Z,5.35
2022-11-03T09:48:11.924Z,4.88
2022-11-03T09:50:39.741Z,5.07
2022-11-03T09:53:10.150Z,5.20
2022-11-03T09:55:37.032Z,5.07
2022-11-03T09:58:14.563Z,4.80
2022-11-03T10:00:41.703Z,5.00
2022-11-03T10:03:17.910Z,4.47
2022-11-03T10:05:45.983Z,4.40
2022-11-03T10:08:26.759Z,5.03
2022-11-03T10:10:54.749Z,4.72
2022-11-03T10:13:31.506Z,4.57
2022-11-03T10:16:01.328Z,4.25
2022-11-03T10:18:29.191Z,4.75
2022-11-03T10:20:58.844Z,5.10
2022-11-03T10:23:25.571Z,4.95
2022-11-03T10:25:52.341Z,4.47
2022-11-03T10:28:28.920Z,5.07
2022-11-03T10:31:11.804Z,5.38
2022-11-03T10:33:42.497Z,4.72
2022-11-03T10:36:15.398Z,5.32
2022-11-03T10:38:43.688Z,4.63
2022-11-03T10:41:22.764Z,4.72
2022-11-03T10:44:19.871Z,4.40
2022-11-03T10:47:05.334Z,4.57
2022-11-03T10:49:39.367Z,4.95
2022-11-03T10:52:26.202Z,4.60
2022-11-03T10:54:56.556Z,4.85
2022-11-03T10:57:24.773Z,4.72
2022-11-03T10:59:53.660Z,4.45
2022-11-03T11:02:28.878Z,4.05
2022-11-03T11:05:01.794Z,4.68
2022-11-03T11:07:43.563Z,4.55
2022-11-03T11:10:26.627Z,4.45
2022-11-03T11:13:19.159Z,4.25
2022-11-03T11:15:55.092Z,4.55
2022-11-03T11:18:30.824Z,4.63
2022-11-03T11:20:59.871Z,4.53
2022-11-03T11:23:29.659Z,4.28
2022-11-03T11:26:27.730Z,4.30
2022-11-03T11:29:10.144Z,4.82
2022-11-03T11:31:44.540Z,4.10
2022-11-03T11:34:17.053Z,4.70
2022-11-03T11:36:54.228Z,4.78
2022-11-03T11:39:24.124Z,5.47
2022-11-03T11:42:21.780Z,4.32
2022-11-03T11:44:57.609Z,4.53
2022-11-03T11:47:33.262Z,4.80
2022-11-03T11:50:06.158Z,4.38
2022-11-03T11:52:51.828Z,4.85
2022-11-03T11:55:24.526Z,4.68
2022-11-03T11:57:52.978Z,4.53
2022-11-03T12:00:29.978Z,4.88
2022-11-03T12:02:57.941Z,5.35
2022-11-03T12:05:29.262Z,5.03
2022-11-03T12:07:56.540Z,5.03
2022-11-03T12:10:32.647Z,5.15
2022-11-03T12:13:00.875Z,4.95
2022-11-03T12:15:57.589Z,5.40
2022-11-03T12:18:40.043Z,4.85
2022-11-03T12:21:14.805Z,4.70
2022-11-03T12:26:41.330Z,5.22
2022-11-03T12:29:08.428Z,4.90
2022-11-03T12:31:37.017Z,5.88
2022-11-03T12:34:04.058Z,4.97
2022-11-03T12:36:30.993Z,5.25
2022-11-03T12:38:57.860Z,5.80
2022-11-03T12:41:25.261Z,5.85
2022-11-03T12:43:54.357Z,5.10
2022-11-03T12:46:22.382Z,5.60
2022-11-03T12:48:50.105Z,6.05
2022-11-03T12:51:23.055Z,5.78
2022-11-03T12:53:50.729Z,6.28
2022-11-03T12:56:18.748Z,5.63
2022-11-03T12:58:45.727Z,5.65
2022-11-03T13:01:12.905Z,6.57
2022-11-03T13:03:40.284Z,6.30
2022-11-03T13:06:10.076Z,6.22
2022-11-03T13:08:37.910Z,6.40
2022-11-03T13:11:24.988Z,5.95
2022-11-03T13:13:53.015Z,5.95
2022-11-03T13:16:20.618Z,5.70
2022-11-03T13:18:47.977Z,6.95
2022-11-03T13:21:14.784Z,5.90
2022-11-03T13:23:41.838Z,6.65
2022-11-03T13:26:08.719Z,6.78
2022-11-03T13:28:35.610Z,6.28
2022-11-03T13:31:02.531Z,6.10
2022-11-03T13:33:29.778Z,7.10
2022-11-03T13:35:56.835Z,6.32
2022-11-03T13:38:23.937Z,6.88
2022-11-03T13:40:56.945Z,6.93
2022-11-03T13:43:24.902Z,7.03
2022-11-03T13:45:52.856Z,6.68
2022-11-03T13:49:21.519Z,6.53
2022-11-03T13:51:06.685Z,7.40
2022-11-03T13:56:22.217Z,7.43
2022-11-03T14:01:37.807Z,7.50
2022-11-03T14:06:52.012Z,8.52
2022-11-03T14:09:18.780Z,8.20
2022-11-03T14:12:03.931Z,8.60
2022-11-03T14:14:30.775Z,7.35
2022-11-03T14:16:57.606Z,9.80
2022-11-03T14:19:31.728Z,8.30
2022-11-03T14:22:02.559Z,8.88
2022-11-03T14:24:29.343Z,9.07
2022-11-03T14:26:56.151Z,9.85
2022-11-03T14:29:23.026Z,10.05
2022-11-03T14:31:49.793Z,7.82
2022-11-03T14:34:16.582Z,8.27
2022-11-03T14:36:43.841Z,8.10
2022-11-03T14:39:10.617Z,7.63
2022-11-03T14:41:55.768Z,7.60
2022-11-03T14:44:22.548Z,7.88
2022-11-03T14:46:49.407Z,7.90
2022-11-03T14:49:16.147Z,8.50
2022-11-03T14:51:43.093Z,8.57
2022-11-03T14:54:09.956Z,9.15
2022-11-03T14:56:36.743Z,8.95
2022-11-03T14:59:03.556Z,8.68
2022-11-03T15:01:31.139Z,8.82
2022-11-03T15:03:58.040Z,16.58
2022-11-03T15:06:25.105Z,25.70
2022-11-03T15:08:56.184Z,27.30
2022-11-03T15:11:23.512Z,21.77
2022-11-03T15:13:52.653Z,29.73
2022-11-03T15:16:20.582Z,42.42
2022-11-03T15:18:47.567Z,36.45
2022-11-03T15:21:14.475Z,26.40
2022-11-03T15:26:27.943Z,21.63
2022-11-03T15:28:54.797Z,16.20
2022-11-03T15:31:23.527Z,17.20
2022-11-03T15:33:50.333Z,16.00
2022-11-03T15:36:17.167Z,16.20
2022-11-03T15:38:44.026Z,17.05
2022-11-03T15:41:16.598Z,17.80
2022-11-03T15:43:48.611Z,14.80
2022-11-03T15:46:20.359Z,14.50
2022-11-03T15:48:48.640Z,13.52
2022-11-03T15:51:16.005Z,13.35
2022-11-03T15:53:43.775Z,13.88
2022-11-03T15:56:10.580Z,12.48
2022-11-03T15:58:37.580Z,12.65
2022-11-03T16:01:05.293Z,11.10
2022-11-03T16:03:32.574Z,12.00
2022-11-03T16:05:59.571Z,12.20
2022-11-03T16:08:26.607Z,11.45
2022-11-03T16:10:58.010Z,12.63
2022-11-03T16:13:25.582Z,11.43
2022-11-03T16:15:55.978Z,10.75
2022-11-03T16:18:22.732Z,11.18
2022-11-03T16:20:49.693Z,11.27
2022-11-03T16:23:16.676Z,12.10
2022-11-03T16:25:43.450Z,11.52
2022-11-03T16:28:10.580Z,12.25
2022-11-03T16:30:38.439Z,11.90
2022-11-03T16:33:05.675Z,11.82
2022-11-03T16:35:33.646Z,12.70
2022-11-03T16:38:00.770Z,12.13
2022-11-03T16:40:27.569Z,14.98
2022-11-03T16:42:55.067Z,17.92
2022-11-03T16:45:26.372Z,19.35
2022-11-03T16:47:53.371Z,14.52
2022-11-03T16:50:20.377Z,14.40
2022-11-03T16:52:49.175Z,15.10
2022-11-03T16:55:17.747Z,13.15
2022-11-03T16:57:45.768Z,14.35
2022-11-03T17:00:20.484Z,15.50
2022-11-03T17:02:47.991Z,14.25
2022-11-03T17:05:17.463Z,14.70
2022-11-03T17:07:50.089Z,14.20
2022-11-03T17:10:19.905Z,14.77
2022-11-03T17:12:46.671Z,15.50
2022-11-03T17:15:13.517Z,15.13
2022-11-03T17:17:52.925Z,16.30
2022-11-03T17:20:19.693Z,15.38
2022-11-03T17:22:47.659Z,16.67
2022-11-03T17:25:14.497Z,17.17
2022-11-03T17:27:54.231Z,18.38
2022-11-03T17:30:30.325Z,17.40
2022-11-03T17:33:00.882Z,16.45
2022-11-03T17:35:39.668Z,17.02
2022-11-03T17:38:13.767Z,16.50
2022-11-03T17:40:50.555Z,31.40
2022-11-03T17:43:27.975Z,17.95
2022-11-03T17:45:54.925Z,18.45
2022-11-03T17:48:23.141Z,20.30
2022-11-03T17:50:53.525Z,21.95
2022-11-03T17:53:27.560Z,23.70
2022-11-03T17:58:46.532Z,22.40
2022-11-03T18:01:22.401Z,21.38
2022-11-03T18:03:49.272Z,20.45
2022-11-03T18:06:19.091Z,21.67
2022-11-03T18:08:47.839Z,19.77
2022-11-03T18:12:00.624Z,24.65
2022-11-03T18:14:29.268Z,20.60
2022-11-03T18:16:56.912Z,30.13
2022-11-03T18:19:23.763Z,37.85
2022-11-03T18:21:50.841Z,36.92
2022-11-03T18:24:20.293Z,27.40
2022-11-03T18:26:47.269Z,21.85
2022-11-03T18:29:14.444Z,23.00
2022-11-03T18:31:46.732Z,21.90
2022-11-03T18:34:22.805Z,21.98
2022-11-03T18:36:50.130Z,21.92
2022-11-03T18:39:26.834Z,22.08
2022-11-03T18:41:54.547Z,20.88
2022-11-03T18:44:28.884Z,23.02
2022-11-03T18:46:56.798Z,20.25
2022-11-03T18:49:25.495Z,20.33
2022-11-03T18:52:03.988Z,21.20
2022-11-03T18:54:33.014Z,19.90
2022-11-03T18:57:01.543Z,21.10
2022-11-03T18:59:32.589Z,21.10
2022-11-03T19:01:59.528Z,20.08
2022-11-03T19:04:26.731Z,20.92
2022-11-03T19:06:53.593Z,19.38
2022-11-03T19:09:24.502Z,20.42
2022-11-03T19:11:54.490Z,19.52
2022-11-03T19:14:34.725Z,18.45
2022-11-03T19:17:22.283Z,18.25
2022-11-03T19:19:50.541Z,19.52
2022-11-03T19:22:20.861Z,20.13
2022-11-03T19:24:48.737Z,22.83
2022-11-03T19:27:26.087Z,18.50
2022-11-03T19:29:53.969Z,18.48
2022-11-03T19:32:30.097Z,19.15
2022-11-03T19:35:20.799Z,19.25
2022-11-03T19:37:51.534Z,19.95
2022-11-03T19:40:20.164Z,21.50
2022-11-03T19:42:48.749Z,23.38
2022-11-03T19:45:20.100Z,20.38
2022-11-03T19:48:23.284Z,19.95
2022-11-03T19:50:48.610Z,19.08
2022-11-03T19:53:21.721Z,20.15
2022-11-03T19:58:22.524Z,21.70
2022-11-03T20:00:50.393Z,21.55
2022-11-03T20:03:18.013Z,21.70
2022-11-03T20:05:49.533Z,23.35
2022-11-03T20:08:21.184Z,23.65
2022-11-03T20:10:48.261Z,24.98
2022-11-03T20:13:22.008Z,22.80
2022-11-03T20:15:49.136Z,25.55
2022-11-03T20:18:16.651Z,23.88
2022-11-03T20:20:48.050Z,22.85
2022-11-03T20:23:27.860Z,22.02
2022-11-03T20:25:55.345Z,20.85
2022-11-03T20:28:27.439Z,21.65
2022-11-03T20:30:55.583Z,21.55
2022-11-03T20:33:24.850Z,22.75
2022-11-03T20:35:53.336Z,22.52
2022-11-03T20:38:22.704Z,23.00
2022-11-03T20:40:55.688Z,23.05
2022-11-03T20:45:55.450Z,22.23
2022-11-03T20:48:22.934Z,22.35
2022-11-03T20:50:50.452Z,24.45
2022-11-03T20:53:22.691Z,21.65
2022-11-03T20:55:51.129Z,22.30
2022-11-03T20:58:18.313Z,22.52
2022-11-03T21:00:47.684Z,20.00
2022-11-03T21:03:53.478Z,20.05
2022-11-03T21:06:17.665Z,19.85
2022-11-03T21:08:46.055Z,20.20
2022-11-03T21:11:27.184Z,24.35
2022-11-03T21:13:58.136Z,27.50
2022-11-03T21:16:46.218Z,39.33
2022-11-03T21:19:39.058Z,49.95
2022-11-03T21:25:17.755Z,34.42
2022-11-03T21:27:45.238Z,30.20
2022-11-03T21:30:14.219Z,26.77
2022-11-03T21:32:41.426Z,22.58
2022-11-03T21:35:19.532Z,23.02
2022-11-03T21:37:47.130Z,23.65
2022-11-03T21:40:14.168Z,22.65
2022-11-03T21:42:59.428Z,22.35
2022-11-03T21:45:26.712Z,21.77
2022-11-03T21:48:14.331Z,21.35
2022-11-03T21:50:42.519Z,21.90
2022-11-03T21:53:10.598Z,21.27
2022-11-03T21:55:38.387Z,19.45
2022-11-03T21:58:05.445Z,22.33
2022-11-03T22:00:32.905Z,22.02
2022-11-03T22:03:00.862Z,20.80
2022-11-03T22:05:27.967Z,22.67
2022-11-03T22:07:54.843Z,22.15
2022-11-03T22:10:21.702Z,23.17
2022-11-03T22:12:48.484Z,21.92
2022-11-03T22:15:34.265Z,21.50
2022-11-03T22:18:06.615Z,20.90
2022-11-03T22:20:54.154Z,21.38
2022-11-03T22:23:39.608Z,21.48
2022-11-03T22:26:29.853Z,21.67
2022-11-03T22:29:17.470Z,20.83
2022-11-03T22:31:44.315Z,21.45
2022-11-03T22:34:29.640Z,21.90
2022-11-03T22:36:56.456Z,21.75
2022-11-03T22:39:41.692Z,20.13
2022-11-03T22:42:30.626Z,22.40
2022-11-03T22:45:15.915Z,21.60
2022-11-03T22:47:42.732Z,21.50
2022-11-03T22:50:09.837Z,21.50
2022-11-03T22:52:36.577Z,21.98
2022-11-03T22:55:03.887Z,21.67
2022-11-03T22:57:30.636Z,22.25
2022-11-03T22:59:57.366Z,22.05
2022-11-03T23:02:24.185Z,23.10
2022-11-03T23:04:51.016Z,23.27
2022-11-03T23:07:17.815Z,23.15
2022-11-03T23:09:45.320Z,22.50
2022-11-03T23:12:12.103Z,24.13
2022-11-03T23:14:57.300Z,24.10
2022-11-03T23:17:44.069Z,23.50
2022-11-03T23:20:29.654Z,22.67
2022-11-03T23:22:56.460Z,22.65
2022-11-03T23:25:23.292Z,23.27
2022-11-03T23:27:50.169Z,22.60
2022-11-03T23:30:16.979Z,22.73
2022-11-03T23:32:43.857Z,22.48
2022-11-03T23:35:10.949Z,22.30
2022-11-03T23:37:37.781Z,21.98
2022-11-03T23:40:04.938Z,22.05
2022-11-03T23:42:31.692Z,22.73
2022-11-03T23:45:17.164Z,22.58
2022-11-03T23:48:02.208Z,23.25
2022-11-03T23:50:29.013Z,22.63
2022-11-03T23:52:55.771Z,22.52
2022-11-03T23:55:22.584Z,22.65
2022-11-03T23:58:08.007Z,22.70
